^^
Station Historical Data
Daily Summary for February 7, 2017 Units:  Metric    English   Both
« Previous Day
Next Day »
Daily Weekly Monthly Yearly Custom
  High: Low: Average:
Temperature: 33.1 °C 21.7 °C 24.3 °C
Dew Point: 16.9 °C 8.1 °C 9.8 °C
Humidity: 43% 35% 40%
Wind Speed: 20.9km/h 0km/h 7.7km/h
Wind Gust: 24.1km/h - -
Wind- - SSW
Pressure: 1008 hPa 1006.3 hPa -
Precipitation: 0 mm    
Historical Graphs
 
 
Tabular Data for February 7, 2017
Time Temperature Dew Point Pressure Wind Wind Speed Wind Gust Humidity Rainfall Rate (Hourly) solar Conditions
00:09 25.8 °C 10 °C 1007.7 hPa SSW 13 km/h 14.5 km/h 37% 0 mm 0.0 W/m2
00:14 25.7 °C 9.9 °C 1007.7 hPa SSW 7.9 km/h 12.9 km/h 37% 0 mm 0.0 W/m2
00:19 25.6 °C 9.8 °C 1007.7 hPa SSW 11.1 km/h 11.3 km/h 37% 0 mm 0.0 W/m2
00:24 25.6 °C 9.8 °C 1007.7 hPa Calm     37% 0 mm 0.0 W/m2
00:34 25.5 °C 9.7 °C 1007.7 hPa Calm     37% 0 mm 0.0 W/m2
00:39 25.4 °C 10 °C 1007.7 hPa Calm     38% 0 mm 0.0 W/m2
00:44 25.5 °C 9.7 °C 1007.7 hPa SSW 7.9 km/h 9.7 km/h 37% 0 mm 0.0 W/m2
00:49 25.4 °C 9.7 °C 1007.7 hPa SSW 13 km/h 16.1 km/h 37% 0 mm 0.0 W/m2
00:59 25.1 °C 9.8 °C 1007.7 hPa SSW 13 km/h 14.5 km/h 38% 0 mm 0.0 W/m2
01:04 24.9 °C 9.6 °C 1007.7 hPa SSW 14.3 km/h 16.1 km/h 38% 0 mm 0.0 W/m2
01:09 24.7 °C 9.4 °C 1007.7 hPa SSW 16.3 km/h 16.3 km/h 38% 0 mm 0.0 W/m2
01:14 24.6 °C 9.3 °C 1007.7 hPa SSW 19.5 km/h 19.5 km/h 38% 0 mm 0.0 W/m2
01:19 24.5 °C 9.6 °C 1007.7 hPa SSW 17.7 km/h 19.3 km/h 39% 0 mm 0.0 W/m2
01:24 24.5 °C 9.6 °C 1007.7 hPa SSW 16.3 km/h 19.3 km/h 39% 0 mm 0.0 W/m2
01:30 24.5 °C 9.6 °C 1007.7 hPa SSW 17.7 km/h 20.9 km/h 39% 0 mm 0.0 W/m2
01:35 24.4 °C 9.5 °C 1007.7 hPa SSW 17.7 km/h 22.5 km/h 39% 0 mm 0.0 W/m2
01:40 24.3 °C 9.5 °C 1007.7 hPa SSW 14.3 km/h 24.1 km/h 39% 0 mm 0.0 W/m2
01:45 24.2 °C 9.4 °C 1007.7 hPa SSW 16.3 km/h 20.9 km/h 39% 0 mm 0.0 W/m2
01:50 24.2 °C 9.4 °C 1007.7 hPa SSW 17.7 km/h 19.3 km/h 39% 0 mm 0.0 W/m2
02:00 24 °C 9.2 °C 1007.3 hPa SSW 17.7 km/h 20.9 km/h 39% 0 mm 0.0 W/m2
02:05 23.9 °C 9.5 °C 1007.3 hPa SSW 20.9 km/h 20.9 km/h 40% 0 mm 0.0 W/m2
02:10 23.9 °C 9.5 °C 1007.3 hPa SSW 17.7 km/h 22.5 km/h 40% 0 mm 0.0 W/m2
02:20 23.8 °C 9.4 °C 1007 hPa SSW 19.5 km/h 22.5 km/h 40% 0 mm 0.0 W/m2
02:25 23.7 °C 9.3 °C 1007 hPa SSW 17.7 km/h 20.9 km/h 40% 0 mm 0.0 W/m2
02:30 23.6 °C 9.2 °C 1007 hPa SSW 19.5 km/h 22.5 km/h 40% 0 mm 0.0 W/m2
02:35 23.5 °C 9.1 °C 1007.3 hPa SSW 20.9 km/h 22.5 km/h 40% 0 mm 0.0 W/m2
02:45 23.4 °C 9.4 °C 1007.3 hPa SSW 13 km/h 14.5 km/h 41% 0 mm 0.0 W/m2
02:51 23.3 °C 9.3 °C 1007.3 hPa SSW 7.9 km/h 11.3 km/h 41% 0 mm 0.0 W/m2
02:56 23.2 °C 9.2 °C 1007.3 hPa SSW 6.4 km/h 8 km/h 41% 0 mm 0.0 W/m2
03:01 23.2 °C 9.2 °C 1007 hPa SSW 7.9 km/h 9.7 km/h 41% 0 mm 0.0 W/m2
03:06 23.1 °C 9.1 °C 1007 hPa SSW 7.9 km/h 9.7 km/h 41% 0 mm 0.0 W/m2
03:11 23.1 °C 9.1 °C 1007 hPa SSW 7.9 km/h 11.3 km/h 41% 0 mm 0.0 W/m2
03:16 23 °C 9.4 °C 1007 hPa SSW 7.9 km/h 11.3 km/h 42% 0 mm 0.0 W/m2
03:21 23 °C 9.4 °C 1007 hPa SSW 9.7 km/h 11.3 km/h 42% 0 mm 0.0 W/m2
03:26 23 °C 9.4 °C 1007 hPa SSW 14.3 km/h 14.5 km/h 42% 0 mm 0.0 W/m2
03:31 23 °C 9 °C 1007 hPa SSW 7.9 km/h 9.7 km/h 41% 0 mm 0.0 W/m2
03:36 22.9 °C 8.9 °C 1007 hPa SSW 9.7 km/h 12.9 km/h 41% 0 mm 0.0 W/m2
03:41 22.8 °C 9.2 °C 1007 hPa SSW 14.3 km/h 16.1 km/h 42% 0 mm 0.0 W/m2
03:46 22.8 °C 9.2 °C 1007 hPa SSW 11.1 km/h 12.9 km/h 42% 0 mm 0.0 W/m2
03:51 22.7 °C 9.1 °C 1007 hPa SSW 14.3 km/h 16.1 km/h 42% 0 mm 0.0 W/m2
03:56 22.7 °C 8.8 °C 1007 hPa SSW 9.7 km/h 16.1 km/h 41% 0 mm 0.0 W/m2
04:02 22.6 °C 8.7 °C 1007 hPa SSW 13 km/h 13 km/h 41% 0 mm 0.0 W/m2
04:12 22.6 °C 8.7 °C 1007 hPa SSW 13 km/h 13 km/h 41% 0 mm 0.0 W/m2
04:22 22.4 °C 8.5 °C 1007 hPa SSW 11.1 km/h 12.9 km/h 41% 0 mm 0.0 W/m2
04:37 22.3 °C 8.4 °C 1007 hPa SSW 4.7 km/h 8 km/h 41% 0 mm 0.0 W/m2
04:42 22.2 °C 8.3 °C 1007 hPa SSW 7.9 km/h 9.7 km/h 41% 0 mm 0.0 W/m2
04:48 22.2 °C 8.3 °C 1007 hPa SSW 7.9 km/h 11.3 km/h 41% 0 mm 0.0 W/m2
04:53 22.2 °C 8.3 °C 1007 hPa SSW 7.9 km/h 12.9 km/h 41% 0 mm 0.0 W/m2
04:58 22.2 °C 8.3 °C 1007 hPa SSW 7.9 km/h 9.7 km/h 41% 0 mm 0.0 W/m2
05:03 22.2 °C 8.3 °C 1007 hPa SSW 7.9 km/h 11.3 km/h 41% 0 mm 0.0 W/m2
05:13 22.1 °C 8.2 °C 1007 hPa SSW 9.7 km/h 12.9 km/h 41% 0 mm 0.0 W/m2
05:18 22.1 °C 8.2 °C 1007 hPa SSW 11.1 km/h 11.3 km/h 41% 0 mm 0.0 W/m2
05:23 22 °C 8.1 °C 1007 hPa SSW 7.9 km/h 11.3 km/h 41% 0 mm 0.0 W/m2
05:28 22 °C 8.1 °C 1007 hPa SSW 9.7 km/h 12.9 km/h 41% 0 mm 0.0 W/m2
05:38 21.9 °C 8.4 °C 1007 hPa SSW 7.9 km/h 11.3 km/h 42% 0 mm 0.0 W/m2
05:43 21.9 °C 8.4 °C 1007.3 hPa SSW 6.4 km/h 9.7 km/h 42% 0 mm 0.0 W/m2
05:48 21.8 °C 8.3 °C 1007.3 hPa SSW 9.7 km/h 11.3 km/h 42% 0 mm 0.0 W/m2
05:58 21.8 °C 8.3 °C 1007.3 hPa Calm     42% 0 mm 0.0 W/m2
06:03 21.8 °C 8.3 °C 1007.3 hPa Calm     42% 0 mm 0.0 W/m2
06:09 21.8 °C 8.7 °C 1007.3 hPa Calm     43% 0 mm 0.0 W/m2
06:19 21.7 °C 8.6 °C 1007.7 hPa Calm     43% 0 mm 0.0 W/m2
06:24 21.7 °C 8.6 °C 1007.3 hPa Calm     43% 0 mm 0.0 W/m2
06:30 21.7 °C 8.6 °C 1007.3 hPa Calm     43% 0 mm 5.0 W/m2
06:35 21.7 °C 8.6 °C 1007.7 hPa Calm     43% 0 mm 9.0 W/m2
06:40 21.8 °C 8.7 °C 1007.7 hPa Calm     43% 0 mm 12.0 W/m2
06:45 21.9 °C 8.8 °C 1007.7 hPa Calm     43% 0 mm 14.0 W/m2
06:49 21.9 °C 8.8 °C 1007.7 hPa Calm     43% 0 mm 23.0 W/m2
06:58 22.1 °C 8.9 °C 1007.7 hPa Calm     43% 0 mm 33.0 W/m2
07:04 22.2 °C 9 °C 1007.7 hPa Calm     43% 0 mm 49.0 W/m2
07:16 22.4 °C 8.9 °C 1007.7 hPa SSW 9.7 km/h 11.3 km/h 42% 0 mm 76.0 W/m2
07:20 22.7 °C 9.1 °C 1007.7 hPa SSW 7.9 km/h 9.7 km/h 42% 0 mm 116.0 W/m2
07:42 23.1 °C 9.1 °C 1007.7 hPa SSW 6.4 km/h 9.7 km/h 41% 0 mm 181.0 W/m2
07:50 23.4 °C 9 °C 1007.7 hPa Calm     40% 0 mm 221.0 W/m2
08:00 23.7 °C 8.9 °C 1007.7 hPa Calm     39% 0 mm 262.0 W/m2
08:09 23.9 °C 9.1 °C 1007.7 hPa Calm     39% 0 mm 301.0 W/m2
08:14 24.1 °C 9.3 °C 1008 hPa Calm     39% 0 mm 318.0 W/m2
08:27 24.5 °C 9.2 °C 1007.7 hPa Calm     38% 0 mm 355.0 W/m2
08:32 24.9 °C 9.2 °C 1008 hPa Calm     37% 0 mm 388.0 W/m2
08:38 24.9 °C 9.2 °C 1008 hPa Calm     37% 0 mm 388.0 W/m2
08:47 25.5 °C 9.3 °C 1007.7 hPa Calm     36% 0 mm 441.0 W/m2
09:03 26.3 °C 10 °C 1007.7 hPa Calm     36% 0 mm 475.0 W/m2
09:13 26.7 °C 10.4 °C 1007.7 hPa Calm     36% 0 mm 524.0 W/m2
09:28 27.5 °C 11.1 °C 1007.7 hPa Calm     36% 0 mm 582.0 W/m2
09:44 28.5 °C 11.6 °C 1007.3 hPa Calm     35% 0 mm 629.0 W/m2
09:54 29.1 °C 12.1 °C 1007.3 hPa Calm     35% 0 mm 661.0 W/m2
10:09 30.5 °C 13.3 °C 1007 hPa SSW 3.2 km/h 8 km/h 35% 0 mm 701.0 W/m2
10:24 31.2 °C 16.8 °C 1007 hPa SW 7.9 km/h 12.9 km/h 42% 0 mm 740.0 W/m2
10:29 31.2 °C 16.4 °C 1007 hPa WSW 4.7 km/h 9.7 km/h 41% 0 mm 749.0 W/m2
10:40 31.5 °C 16.7 °C 1007 hPa WSW 7.9 km/h 17.7 km/h 41% 0 mm 779.0 W/m2
11:01 32 °C 16.7 °C 1006.7 hPa West 7.9 km/h 14.5 km/h 40% 0 mm 812.0 W/m2
11:15 32.2 °C 16.5 °C 1006.3 hPa Calm   12.9 km/h 39% 0 mm 842.0 W/m2
11:23 33 °C 16.8 °C 1006.3 hPa West 7.9 km/h 8 km/h 38% 0 mm 861.0 W/m2
11:29 33.1 °C 16.9 °C 1006.3 hPa Calm   17.7 km/h 38% 0 mm 870.0 W/m2
Canyon Roadhouse, Fishriver Canyon, Namibia
Compliments of Weather Underground - 2 mb